createdAt,value
2023-05-06T00:01:50.646Z,99632.72
2023-05-06T00:04:54.474Z,99630.00
2023-05-06T00:07:58.171Z,99638.84
2023-05-06T00:11:01.958Z,99625.66
2023-05-06T00:14:07.452Z,99617.94
2023-05-06T00:17:11.372Z,99626.25
2023-05-06T00:20:15.758Z,99622.47
2023-05-06T00:23:19.500Z,99619.69
2023-05-06T00:26:23.195Z,99621.41
2023-05-06T00:29:28.722Z,99618.09
2023-05-06T00:32:32.556Z,99615.47
2023-05-06T00:35:36.297Z,99614.03
2023-05-06T00:38:40.923Z,99618.22
2023-05-06T00:41:45.279Z,99629.56
2023-05-06T00:44:50.817Z,99625.78
2023-05-06T00:47:54.843Z,99625.91
2023-05-06T00:50:58.687Z,99631.56
2023-05-06T00:54:03.525Z,99626.09
2023-05-06T00:57:07.281Z,99623.97
2023-05-06T01:00:13.612Z,99622.56
2023-05-06T01:03:17.595Z,99624.22
2023-05-06T01:06:27.988Z,99621.19
2023-05-06T01:09:42.427Z,99620.13
2023-05-06T01:12:59.997Z,99620.09
2023-05-06T01:16:08.738Z,99622.84
2023-05-06T01:19:19.506Z,99620.19
2023-05-06T01:22:26.238Z,99613.66
2023-05-06T01:25:32.568Z,99614.22
2023-05-06T01:28:36.252Z,99615.66
2023-05-06T01:31:47.132Z,99614.31
2023-05-06T01:35:01.409Z,99616.84
2023-05-06T01:38:13.401Z,99615.47
2023-05-06T01:41:19.501Z,99617.72
2023-05-06T01:44:24.666Z,99615.09
2023-05-06T01:47:28.526Z,99601.84
2023-05-06T01:50:32.719Z,99609.84
2023-05-06T01:53:37.692Z,99603.28
2023-05-06T01:56:42.890Z,99603.34
2023-05-06T01:59:46.531Z,99609.34
2023-05-06T02:02:50.234Z,99601.25
2023-05-06T02:05:54.308Z,99608.25
2023-05-06T02:08:58.224Z,99598.31
2023-05-06T02:12:04.658Z,99604.19
2023-05-06T02:15:09.810Z,99603.28
2023-05-06T02:18:14.126Z,99605.69
2023-05-06T02:21:17.714Z,99606.44
2023-05-06T02:24:21.459Z,99609.53
2023-05-06T02:27:26.526Z,99606.88
2023-05-06T02:30:32.582Z,99597.81
2023-05-06T02:33:36.309Z,99591.50
2023-05-06T02:36:40.674Z,99601.72
2023-05-06T02:39:44.417Z,99599.72
2023-05-06T02:42:49.534Z,99594.81
2023-05-06T02:45:53.271Z,99594.91
2023-05-06T02:48:56.982Z,99592.88
2023-05-06T02:52:00.964Z,99592.59
2023-05-06T02:55:05.037Z,99588.50
2023-05-06T02:58:10.183Z,99593.16
2023-05-06T03:01:13.945Z,99604.34
2023-05-06T03:04:17.659Z,99598.41
2023-05-06T03:07:21.844Z,99594.34
2023-05-06T03:10:25.790Z,99599.03
2023-05-06T03:13:32.530Z,99603.53
2023-05-06T03:16:36.340Z,99602.28
2023-05-06T03:19:40.564Z,99605.38
2023-05-06T03:22:45.978Z,99610.72
2023-05-06T03:25:49.783Z,99609.38
2023-05-06T03:28:56.987Z,99610.16
2023-05-06T03:32:04.871Z,99609.06
2023-05-06T03:35:14.642Z,99616.06
2023-05-06T03:38:21.740Z,99627.34
2023-05-06T03:41:32.543Z,99624.81
2023-05-06T03:44:38.611Z,99630.94
2023-05-06T03:47:43.071Z,99629.38
2023-05-06T03:50:48.390Z,99636.00
2023-05-06T03:53:54.938Z,99645.84
2023-05-06T03:56:59.268Z,99652.06
2023-05-06T04:00:04.764Z,99649.28
2023-05-06T04:03:09.056Z,99655.47
2023-05-06T04:06:19.259Z,99657.28
2023-05-06T04:09:22.961Z,99656.63
2023-05-06T04:12:27.933Z,99658.06
2023-05-06T04:15:34.735Z,99655.06
2023-05-06T04:18:41.204Z,99660.50
2023-05-06T04:21:50.705Z,99649.56
2023-05-06T04:24:55.707Z,99663.50
2023-05-06T04:27:59.536Z,99656.00
2023-05-06T04:31:05.212Z,99657.94
2023-05-06T04:34:16.853Z,99661.81
2023-05-06T04:37:21.907Z,99657.31
2023-05-06T04:40:30.999Z,99661.38
2023-05-06T04:43:34.936Z,99658.78
2023-05-06T04:46:49.681Z,99670.97
2023-05-06T04:49:53.543Z,99668.53
2023-05-06T04:52:58.466Z,99667.00
2023-05-06T04:56:02.669Z,99673.38
2023-05-06T04:59:08.384Z,99676.78
2023-05-06T05:02:13.872Z,99664.34
2023-05-06T05:05:19.922Z,99675.44
2023-05-06T05:08:27.860Z,99673.53
2023-05-06T05:11:32.845Z,99676.78
2023-05-06T05:14:36.709Z,99675.91
2023-05-06T05:17:42.665Z,99674.56
2023-05-06T05:20:46.952Z,99677.00
2023-05-06T05:23:51.593Z,99669.88
2023-05-06T05:26:55.903Z,99673.31
2023-05-06T05:30:00.323Z,99680.84
2023-05-06T05:33:05.799Z,99675.91
2023-05-06T05:36:12.715Z,99680.31
2023-05-06T05:39:16.598Z,99674.63
2023-05-06T05:42:23.232Z,99679.72
2023-05-06T05:45:27.558Z,99677.47
2023-05-06T05:48:34.422Z,99679.72
2023-05-06T05:51:40.369Z,99687.25
2023-05-06T05:54:45.865Z,99682.91
2023-05-06T05:57:49.875Z,99691.25
2023-05-06T06:00:55.209Z,99686.63
2023-05-06T06:04:00.906Z,99685.09
2023-05-06T06:07:05.097Z,99687.13
2023-05-06T06:10:15.575Z,99685.97
2023-05-06T06:13:21.050Z,99687.53
2023-05-06T06:16:25.214Z,99688.50
2023-05-06T06:19:30.477Z,99684.81
2023-05-06T06:22:34.673Z,99675.59
2023-05-06T06:25:38.795Z,99672.84
2023-05-06T06:28:44.904Z,99676.06
2023-05-06T06:31:49.424Z,99671.56
2023-05-06T06:34:54.828Z,99676.66
2023-05-06T06:37:58.808Z,99673.69
2023-05-06T06:41:02.523Z,99677.59
2023-05-06T06:44:07.064Z,99670.75
2023-05-06T06:47:11.008Z,99669.13
2023-05-06T06:50:16.565Z,99668.16
2023-05-06T06:53:20.351Z,99669.94
2023-05-06T06:56:24.270Z,99672.41
2023-05-06T06:59:28.084Z,99676.47
2023-05-06T07:02:31.868Z,99679.50
2023-05-06T07:05:37.100Z,99676.75
2023-05-06T07:08:40.921Z,99678.50
2023-05-06T07:11:44.799Z,99668.66
2023-05-06T07:14:48.578Z,99666.91
2023-05-06T07:17:52.451Z,99668.50
2023-05-06T07:20:57.846Z,99671.47
2023-05-06T07:24:01.638Z,99669.06
2023-05-06T07:27:05.734Z,99668.88
2023-05-06T07:30:10.604Z,99667.88
2023-05-06T07:33:14.456Z,99663.06
2023-05-06T07:36:19.754Z,99664.22
2023-05-06T07:39:23.538Z,99665.66
2023-05-06T07:42:27.787Z,99665.06
2023-05-06T07:45:31.694Z,99662.81
2023-05-06T07:48:35.450Z,99673.16
2023-05-06T07:51:40.919Z,99666.31
2023-05-06T07:54:44.855Z,99669.56
2023-05-06T07:57:48.668Z,99675.56
2023-05-06T08:00:52.343Z,99674.88
2023-05-06T08:03:56.520Z,99676.88
2023-05-06T08:07:01.880Z,99682.28
2023-05-06T08:10:06.664Z,99678.88
2023-05-06T08:13:11.457Z,99666.50
2023-05-06T08:16:15.403Z,99668.38
2023-05-06T08:19:19.493Z,99673.25
2023-05-06T08:22:24.833Z,99675.44
2023-05-06T08:25:28.794Z,99686.47
2023-05-06T08:28:32.932Z,99675.16
2023-05-06T08:31:36.845Z,99674.91
2023-05-06T08:34:40.711Z,99680.38
2023-05-06T08:37:46.291Z,99678.97
2023-05-06T08:40:50.825Z,99675.19
2023-05-06T08:43:56.518Z,99677.91
2023-05-06T08:47:00.721Z,99681.09
2023-05-06T08:50:04.640Z,99673.00
2023-05-06T08:53:12.137Z,99676.84
2023-05-06T08:56:17.302Z,99669.84
2023-05-06T08:59:24.102Z,99673.13
2023-05-06T09:02:28.199Z,99677.88
2023-05-06T09:05:32.082Z,99674.56
2023-05-06T09:08:37.732Z,99677.84
2023-05-06T09:11:42.012Z,99668.94
2023-05-06T09:14:46.858Z,99663.75
2023-05-06T09:17:50.708Z,99662.88
2023-05-06T09:20:54.507Z,99662.25
2023-05-06T09:23:59.942Z,99662.84
2023-05-06T09:27:03.710Z,99662.69
2023-05-06T09:30:09.773Z,99663.16
2023-05-06T09:33:14.036Z,99659.22
2023-05-06T09:36:18.093Z,99657.31
2023-05-06T09:39:27.393Z,99643.91
2023-05-06T09:42:32.138Z,99640.53
2023-05-06T09:45:37.899Z,99652.31
2023-05-06T09:48:42.779Z,99645.84
2023-05-06T09:51:48.184Z,99642.91
2023-05-06T09:54:55.157Z,99632.72
2023-05-06T09:58:00.155Z,99629.53
2023-05-06T10:01:05.386Z,99631.72
2023-05-06T10:04:12.969Z,99624.16
2023-05-06T10:07:22.976Z,99624.63
2023-05-06T10:10:29.954Z,99626.78
2023-05-06T10:13:34.402Z,99627.47
2023-05-06T10:16:40.389Z,99624.22
2023-05-06T10:19:52.069Z,99626.19
2023-05-06T10:23:05.165Z,99628.22
2023-05-06T10:26:13.857Z,99617.41
2023-05-06T10:29:19.052Z,99614.19
2023-05-06T10:32:23.282Z,99618.16
2023-05-06T10:35:37.613Z,99609.44
2023-05-06T10:38:45.061Z,99623.25
2023-05-06T10:41:50.607Z,99613.16
2023-05-06T10:45:05.076Z,99622.63
2023-05-06T10:48:13.350Z,99624.97
2023-05-06T10:51:25.433Z,99627.09
2023-05-06T10:54:29.482Z,99627.50
2023-05-06T10:57:42.490Z,99625.00
2023-05-06T11:00:55.912Z,99617.91
2023-05-06T11:04:00.968Z,99623.97
2023-05-06T11:07:09.385Z,99629.63
2023-05-06T11:10:13.314Z,99632.84
2023-05-06T11:13:26.582Z,99621.50
2023-05-06T11:16:48.919Z,99636.66
2023-05-06T11:20:22.475Z,99625.31
2023-05-06T11:24:06.038Z,99623.31
2023-05-06T11:27:10.744Z,99618.63
2023-05-06T11:30:17.610Z,99622.28
2023-05-06T11:33:24.185Z,99627.16
2023-05-06T11:36:28.990Z,99625.75
2023-05-06T11:39:39.661Z,99626.28
2023-05-06T11:42:44.557Z,99629.06
2023-05-06T11:45:50.859Z,99623.81
2023-05-06T11:48:54.664Z,99615.44
2023-05-06T11:51:58.518Z,99621.47
2023-05-06T11:55:02.247Z,99621.69
2023-05-06T11:58:06.101Z,99622.09
2023-05-06T12:01:11.735Z,99623.97
2023-05-06T12:04:15.632Z,99627.22
2023-05-06T12:07:19.600Z,99629.06
2023-05-06T12:10:23.468Z,99621.38
2023-05-06T12:13:28.174Z,99612.72
2023-05-06T12:16:33.732Z,99621.25
2023-05-06T12:19:37.989Z,99621.50
2023-05-06T12:22:42.126Z,99625.38
2023-05-06T12:25:46.167Z,99616.50
2023-05-06T12:29:07.122Z,99618.19
2023-05-06T12:32:13.318Z,99622.75
2023-05-06T12:35:26.904Z,99627.47
2023-05-06T12:38:32.498Z,99616.78
2023-05-06T12:41:41.164Z,99614.84
2023-05-06T12:44:44.978Z,99615.91
2023-05-06T12:47:57.118Z,99607.56
2023-05-06T12:51:01.095Z,99613.09
2023-05-06T12:54:05.079Z,99613.38
2023-05-06T12:57:09.076Z,99610.47
2023-05-06T13:00:14.242Z,99603.91
2023-05-06T13:03:20.588Z,99603.31
2023-05-06T13:06:24.467Z,99609.31
2023-05-06T13:09:28.350Z,99597.28
2023-05-06T13:12:32.504Z,99597.56
2023-05-06T13:15:36.697Z,99594.53
2023-05-06T13:18:42.077Z,99588.75
2023-05-06T13:21:46.602Z,99588.69
2023-05-06T13:24:50.567Z,99588.38
2023-05-06T13:27:54.472Z,99594.31
2023-05-06T13:30:58.270Z,99587.31
2023-05-06T13:34:04.192Z,99583.47
2023-05-06T13:37:08.187Z,99585.56
2023-05-06T13:40:13.394Z,99581.25
2023-05-06T13:43:17.359Z,99589.22
2023-05-06T13:46:21.322Z,99584.09
2023-05-06T13:49:26.649Z,99574.75
2023-05-06T13:52:30.712Z,99577.34
2023-05-06T13:55:34.463Z,99577.31
2023-05-06T13:58:38.339Z,99578.69
2023-05-06T14:01:42.659Z,99581.69
2023-05-06T14:04:48.010Z,99584.75
2023-05-06T14:07:52.089Z,99583.00
2023-05-06T14:10:55.966Z,99583.94
2023-05-06T14:13:59.769Z,99572.78
2023-05-06T14:17:03.692Z,99587.69
2023-05-06T14:20:10.549Z,99581.03
2023-05-06T14:23:14.931Z,99575.84
2023-05-06T14:26:18.800Z,99575.34
2023-05-06T14:29:22.783Z,99578.47
2023-05-06T14:32:26.771Z,99578.69
2023-05-06T14:35:32.036Z,99572.97
2023-05-06T14:38:35.969Z,99578.41
2023-05-06T14:41:39.850Z,99579.16
2023-05-06T14:44:45.417Z,99582.22
2023-05-06T14:47:49.188Z,99576.19
2023-05-06T14:50:54.524Z,99576.97
2023-05-06T14:53:58.360Z,99568.16
2023-05-06T14:57:03.334Z,99571.81
2023-05-06T15:00:10.467Z,99577.72
2023-05-06T15:03:14.322Z,99572.88
2023-05-06T15:06:19.973Z,99575.78
2023-05-06T15:09:23.806Z,99575.53
2023-05-06T15:12:27.805Z,99575.22
2023-05-06T15:15:31.845Z,99568.31
2023-05-06T15:18:35.827Z,99578.44
2023-05-06T15:21:41.112Z,99575.66
2023-05-06T15:24:45.019Z,99570.88
2023-05-06T15:27:48.762Z,99569.91
2023-05-06T15:30:52.717Z,99578.53
2023-05-06T15:33:58.316Z,99576.16
2023-05-06T15:37:04.831Z,99569.03
2023-05-06T15:40:12.219Z,99573.53
2023-05-06T15:43:22.823Z,99564.78
2023-05-06T15:46:28.362Z,99565.16
2023-05-06T15:49:51.418Z,99568.13
2023-05-06T15:52:57.898Z,99572.63
2023-05-06T15:56:13.033Z,99571.66
2023-05-06T15:59:21.788Z,99572.19
2023-05-06T16:02:27.543Z,99572.41
2023-05-06T16:05:31.732Z,99571.22
2023-05-06T16:08:37.182Z,99574.97
2023-05-06T16:11:40.950Z,99564.41
2023-05-06T16:14:44.707Z,99572.38
2023-05-06T16:17:48.564Z,99573.84
2023-05-06T16:20:52.477Z,99565.16
2023-05-06T16:23:57.918Z,99571.56
2023-05-06T16:27:01.977Z,99562.94
2023-05-06T16:30:06.630Z,99570.78
2023-05-06T16:33:11.079Z,99563.06
2023-05-06T16:36:15.151Z,99565.81
2023-05-06T16:39:20.446Z,99571.72
2023-05-06T16:42:28.019Z,99578.41
2023-05-06T16:45:45.753Z,99577.66
2023-05-06T16:48:50.011Z,99581.16
2023-05-06T16:51:54.074Z,99577.69
2023-05-06T16:55:09.893Z,99582.78
2023-05-06T16:58:13.851Z,99594.81
2023-05-06T17:01:43.803Z,99589.72
2023-05-06T17:04:47.589Z,99593.97
2023-05-06T17:07:51.397Z,99599.34
2023-05-06T17:10:56.680Z,99598.16
2023-05-06T17:14:00.547Z,99606.59
2023-05-06T17:17:10.244Z,99603.41
2023-05-06T17:20:15.744Z,99610.88
2023-05-06T17:23:19.831Z,99617.78
2023-05-06T17:26:25.181Z,99619.19
2023-05-06T17:29:29.029Z,99620.22
2023-05-06T17:32:32.918Z,99624.28
2023-05-06T17:35:36.731Z,99627.53
2023-05-06T17:38:40.666Z,99627.59
2023-05-06T17:41:45.941Z,99632.13
2023-05-06T17:44:49.751Z,99631.44
2023-05-06T17:47:53.698Z,99637.84
2023-05-06T17:51:02.243Z,99641.69
2023-05-06T17:54:06.351Z,99643.97
2023-05-06T17:57:11.710Z,99637.88
2023-05-06T18:00:17.370Z,99645.03
2023-05-06T18:03:21.270Z,99658.34
2023-05-06T18:06:25.362Z,99664.97
2023-05-06T18:09:29.257Z,99669.94
2023-05-06T18:12:34.662Z,99679.75
2023-05-06T18:15:38.674Z,99678.13
2023-05-06T18:18:42.419Z,99671.63
2023-05-06T18:21:46.981Z,99673.03
2023-05-06T18:24:55.438Z,99673.22
2023-05-06T18:28:00.940Z,99677.75
2023-05-06T18:31:05.366Z,99683.25
2023-05-06T18:34:09.104Z,99677.34
2023-05-06T18:37:12.966Z,99684.31
2023-05-06T18:40:16.936Z,99685.31
2023-05-06T18:43:22.499Z,99690.81
2023-05-06T18:46:27.268Z,99695.94
2023-05-06T18:49:31.402Z,99697.78
2023-05-06T18:52:36.364Z,99708.63
2023-05-06T18:55:40.189Z,99705.56
2023-05-06T18:58:45.516Z,99704.16
2023-05-06T19:01:49.376Z,99707.00
2023-05-06T19:04:53.297Z,99708.03
2023-05-06T19:07:57.020Z,99711.31
2023-05-06T19:11:01.105Z,99706.44
2023-05-06T19:14:06.376Z,99719.09
2023-05-06T19:17:11.588Z,99714.16
2023-05-06T19:20:15.764Z,99715.63
2023-05-06T19:23:20.383Z,99715.59
2023-05-06T19:26:24.185Z,99715.22
2023-05-06T19:29:29.490Z,99716.00
2023-05-06T19:32:33.882Z,99730.72
2023-05-06T19:35:39.534Z,99731.72
2023-05-06T19:38:43.373Z,99719.91
2023-05-06T19:41:47.581Z,99716.84
2023-05-06T19:44:52.834Z,99722.34
2023-05-06T19:47:56.722Z,99733.13
2023-05-06T19:51:00.798Z,99733.34
2023-05-06T19:54:04.973Z,99738.63
2023-05-06T19:57:09.022Z,99738.22
2023-05-06T20:00:20.304Z,99731.72
2023-05-06T20:03:24.295Z,99734.97
2023-05-06T20:06:49.580Z,99735.56
2023-05-06T20:09:55.645Z,99736.22
2023-05-06T20:12:59.508Z,99742.72
2023-05-06T20:16:04.896Z,99749.06
2023-05-06T20:19:09.164Z,99745.97
2023-05-06T20:22:13.166Z,99749.66
2023-05-06T20:25:18.880Z,99752.13
2023-05-06T20:28:22.760Z,99752.09
2023-05-06T20:31:28.164Z,99759.44
2023-05-06T20:34:32.063Z,99757.78
2023-05-06T20:37:36.513Z,99753.53
2023-05-06T20:40:40.717Z,99767.78
2023-05-06T20:43:44.584Z,99764.06
2023-05-06T20:46:49.832Z,99759.38
2023-05-06T20:49:53.647Z,99775.31
2023-05-06T20:52:57.410Z,99761.69
2023-05-06T20:56:01.299Z,99767.13
2023-05-06T20:59:06.104Z,99771.34
2023-05-06T21:02:11.674Z,99774.94
2023-05-06T21:05:15.703Z,99778.19
2023-05-06T21:08:19.461Z,99776.28
2023-05-06T21:11:23.407Z,99781.00
2023-05-06T21:14:27.994Z,99780.59
2023-05-06T21:17:33.399Z,99786.78
2023-05-06T21:20:37.285Z,99793.22
2023-05-06T21:23:41.105Z,99792.22
2023-05-06T21:26:44.820Z,99800.47
2023-05-06T21:29:48.688Z,99796.53
2023-05-06T21:32:54.076Z,99800.75
2023-05-06T21:35:57.907Z,99800.28
2023-05-06T21:39:06.995Z,99813.50
2023-05-06T21:42:11.207Z,99811.22
2023-05-06T21:45:16.422Z,99826.44
2023-05-06T21:48:21.765Z,99828.53
2023-05-06T21:51:27.793Z,99834.03
2023-05-06T21:54:31.870Z,99837.59
2023-05-06T21:57:35.776Z,99837.78
2023-05-06T22:00:39.932Z,99847.19
2023-05-06T22:03:46.562Z,99851.63
2023-05-06T22:06:50.493Z,99846.44
2023-05-06T22:09:54.406Z,99851.97
2023-05-06T22:12:58.479Z,99856.75
2023-05-06T22:16:02.584Z,99859.47
2023-05-06T22:19:07.903Z,99861.31
2023-05-06T22:22:11.735Z,99869.06
2023-05-06T22:25:15.540Z,99861.75
2023-05-06T22:28:19.415Z,99869.06
2023-05-06T22:31:24.974Z,99866.25
2023-05-06T22:34:30.441Z,99870.31
2023-05-06T22:37:34.156Z,99865.41
2023-05-06T22:40:38.050Z,99875.84
2023-05-06T22:43:42.013Z,99872.56
2023-05-06T22:46:45.797Z,99869.13
2023-05-06T22:49:51.052Z,99870.03
2023-05-06T22:52:54.914Z,99872.94
2023-05-06T22:55:58.834Z,99869.47
2023-05-06T22:59:02.679Z,99871.47
2023-05-06T23:02:06.608Z,99867.28
2023-05-06T23:05:12.717Z,99873.63
2023-05-06T23:08:16.819Z,99867.59
2023-05-06T23:11:20.830Z,99864.47
2023-05-06T23:14:24.668Z,99873.06
2023-05-06T23:17:28.562Z,99867.47
2023-05-06T23:20:34.008Z,99867.88
2023-05-06T23:23:37.730Z,99863.25
2023-05-06T23:26:41.577Z,99867.63
2023-05-06T23:29:45.363Z,99863.91
2023-05-06T23:32:49.202Z,99870.34
2023-05-06T23:35:54.400Z,99864.50
2023-05-06T23:38:58.078Z,99859.50
2023-05-06T23:42:02.443Z,99853.91
2023-05-06T23:45:07.228Z,99853.72
2023-05-06T23:48:11.083Z,99847.69
2023-05-06T23:51:16.476Z,99843.06
2023-05-06T23:54:20.201Z,99839.72
2023-05-06T23:57:23.883Z,99841.69
